createdAt,value
2022-08-22T00:01:24.619Z,4.28
2022-08-22T00:02:42.952Z,2.60
2022-08-22T00:02:45.720Z,1.83
2022-08-22T00:02:52.898Z,1.92
2022-08-22T00:02:55.613Z,3.63
2022-08-22T00:02:57.844Z,3.78
2022-08-22T00:04:15.956Z,4.28
2022-08-22T00:06:54.411Z,3.45
2022-08-22T00:09:41.192Z,4.40
2022-08-22T00:12:33.300Z,3.60
2022-08-22T00:15:41.969Z,4.10
2022-08-22T00:18:22.840Z,4.32
2022-08-22T00:21:04.407Z,4.30
2022-08-22T00:23:59.060Z,4.40
2022-08-22T00:26:45.813Z,5.25
2022-08-22T00:29:17.574Z,6.10
2022-08-22T00:31:51.703Z,5.70
2022-08-22T00:34:26.481Z,5.43
2022-08-22T00:37:03.118Z,5.95
2022-08-22T00:40:14.608Z,4.40
2022-08-22T00:43:26.576Z,4.90
2022-08-22T00:46:12.306Z,3.90
2022-08-22T00:48:51.488Z,3.65
2022-08-22T00:51:55.119Z,4.00
2022-08-22T00:54:36.206Z,5.13
2022-08-22T00:57:37.528Z,4.78
2022-08-22T01:00:09.873Z,4.53
2022-08-22T01:03:01.755Z,4.25
2022-08-22T01:05:41.344Z,4.80
2022-08-22T01:08:15.270Z,4.25
2022-08-22T01:11:19.630Z,5.35
2022-08-22T01:13:46.421Z,5.70
2022-08-22T01:17:02.435Z,6.63
2022-08-22T01:19:48.883Z,6.00
2022-08-22T01:22:39.707Z,6.95
2022-08-22T01:25:26.016Z,7.13
2022-08-22T01:28:05.171Z,7.68
2022-08-22T01:30:44.700Z,6.78
2022-08-22T01:33:20.488Z,6.63
2022-08-22T01:36:05.814Z,7.65
2022-08-22T01:38:38.495Z,6.95
2022-08-22T01:41:26.624Z,7.75
2022-08-22T01:44:25.543Z,6.88
2022-08-22T01:47:07.054Z,7.03
2022-08-22T01:49:33.883Z,5.80
2022-08-22T01:52:19.543Z,7.10
2022-08-22T01:57:19.370Z,6.35
2022-08-22T01:59:50.158Z,7.00
2022-08-22T02:03:01.218Z,8.05
2022-08-22T02:05:37.386Z,7.47
2022-08-22T02:08:30.375Z,6.72
2022-08-22T02:11:10.650Z,5.80
2022-08-22T02:13:54.178Z,5.20
2022-08-22T02:16:37.615Z,5.50
2022-08-22T02:19:10.377Z,4.80
2022-08-22T02:22:03.166Z,4.70
2022-08-22T02:24:59.684Z,4.95
2022-08-22T02:28:00.525Z,4.57
2022-08-22T02:30:50.998Z,5.28
2022-08-22T02:33:42.472Z,5.75
2022-08-22T02:36:18.219Z,8.73
2022-08-22T02:39:08.010Z,6.88
2022-08-22T02:41:51.018Z,5.85
2022-08-22T02:44:27.787Z,5.13
2022-08-22T02:47:00.693Z,4.65
2022-08-22T02:49:36.072Z,5.22
2022-08-22T02:52:29.515Z,5.60
2022-08-22T02:55:12.478Z,7.03
2022-08-22T02:57:53.553Z,7.53
2022-08-22T03:00:31.584Z,8.05
2022-08-22T03:02:59.814Z,8.85
2022-08-22T03:05:37.657Z,7.45
2022-08-22T03:08:29.380Z,7.45
2022-08-22T03:11:15.504Z,6.82
2022-08-22T03:14:03.308Z,3.97
2022-08-22T03:16:54.829Z,5.00
2022-08-22T03:19:30.933Z,4.22
2022-08-22T03:22:23.496Z,7.13
2022-08-22T03:24:55.450Z,6.25
2022-08-22T03:27:52.742Z,5.70
2022-08-22T03:30:44.109Z,6.15
2022-08-22T03:33:19.884Z,4.93
2022-08-22T03:35:46.634Z,4.63
2022-08-22T03:38:37.358Z,4.30
2022-08-22T03:41:24.084Z,4.50
2022-08-22T03:44:32.953Z,4.95
2022-08-22T03:47:28.616Z,4.32
2022-08-22T03:50:01.829Z,4.95
2022-08-22T03:52:28.639Z,5.03
2022-08-22T03:55:07.497Z,5.18
2022-08-22T03:58:17.160Z,5.45
2022-08-22T04:01:31.464Z,6.50
2022-08-22T04:04:40.975Z,6.45
2022-08-22T04:07:32.260Z,6.28
2022-08-22T04:10:02.940Z,5.88
2022-08-22T04:13:13.708Z,5.32
2022-08-22T04:16:03.868Z,5.53
2022-08-22T04:18:58.353Z,7.43
2022-08-22T04:21:47.847Z,6.45
2022-08-22T04:24:32.626Z,6.80
2022-08-22T04:27:19.760Z,4.90
2022-08-22T04:29:59.725Z,5.82
2022-08-22T04:32:50.009Z,6.38
2022-08-22T04:35:38.358Z,11.00
2022-08-22T04:38:10.302Z,8.73
2022-08-22T04:41:04.785Z,7.88
2022-08-22T04:43:46.848Z,8.63
2022-08-22T04:46:36.993Z,14.13
2022-08-22T04:49:26.054Z,7.72
2022-08-22T04:51:58.745Z,6.32
2022-08-22T04:54:43.550Z,7.55
2022-08-22T04:57:25.079Z,7.35
2022-08-22T04:59:57.620Z,7.63
2022-08-22T05:02:27.864Z,6.82
2022-08-22T05:05:04.098Z,6.57
2022-08-22T05:07:39.112Z,6.70
2022-08-22T05:10:26.926Z,7.57
2022-08-22T05:13:08.778Z,6.53
2022-08-22T05:15:38.760Z,6.85
2022-08-22T05:18:14.014Z,7.53
2022-08-22T05:20:45.511Z,7.03
2022-08-22T05:23:18.721Z,7.22
2022-08-22T05:25:50.977Z,8.82
2022-08-22T05:28:21.856Z,8.18
2022-08-22T05:30:50.023Z,8.38
2022-08-22T05:33:32.094Z,8.80
2022-08-22T05:36:14.894Z,7.50
2022-08-22T05:38:52.922Z,8.85
2022-08-22T05:41:26.407Z,10.77
2022-08-22T05:43:54.924Z,12.50
2022-08-22T05:46:36.699Z,12.23
2022-08-22T05:49:07.485Z,12.63
2022-08-22T05:51:46.024Z,12.10
2022-08-22T05:54:19.840Z,11.15
2022-08-22T05:56:55.138Z,14.20
2022-08-22T05:59:35.205Z,12.98
2022-08-22T06:02:17.597Z,14.70
2022-08-22T06:04:44.374Z,15.32
2022-08-22T06:07:27.424Z,16.88
2022-08-22T06:10:06.859Z,14.43
2022-08-22T06:12:47.777Z,13.55
2022-08-22T06:15:21.278Z,14.60
2022-08-22T06:17:51.717Z,14.05
2022-08-22T06:20:24.070Z,13.60
2022-08-22T06:22:55.980Z,12.82
2022-08-22T06:25:30.698Z,14.23
2022-08-22T06:28:01.698Z,13.00
2022-08-22T06:30:29.878Z,12.70
2022-08-22T06:33:03.278Z,11.43
2022-08-22T06:36:05.954Z,12.85
2022-08-22T06:38:51.738Z,11.90
2022-08-22T06:41:22.115Z,11.20
2022-08-22T06:43:52.283Z,11.30
2022-08-22T06:46:21.224Z,10.65
2022-08-22T06:48:48.745Z,10.82
2022-08-22T06:51:19.390Z,9.40
2022-08-22T06:53:48.517Z,8.93
2022-08-22T06:56:25.589Z,8.63
2022-08-22T06:59:00.344Z,8.55
2022-08-22T07:01:49.509Z,7.95
2022-08-22T07:04:18.926Z,7.45
2022-08-22T07:06:50.361Z,7.40
2022-08-22T07:09:25.408Z,7.30
2022-08-22T07:11:54.780Z,7.32
2022-08-22T07:14:38.892Z,6.90
2022-08-22T07:17:09.390Z,7.20
2022-08-22T07:19:46.283Z,6.30
2022-08-22T07:22:14.678Z,5.75
2022-08-22T07:24:52.080Z,6.20
2022-08-22T07:27:24.951Z,6.43
2022-08-22T07:30:10.222Z,5.78
2022-08-22T07:35:11.504Z,5.70
2022-08-22T07:38:13.887Z,5.75
2022-08-22T07:41:00.229Z,5.90
2022-08-22T07:43:43.016Z,5.93
2022-08-22T07:46:38.240Z,5.93
2022-08-22T07:49:21.826Z,5.75
2022-08-22T07:52:00.397Z,6.03
2022-08-22T07:54:30.224Z,5.43
2022-08-22T07:57:06.681Z,5.30
2022-08-22T07:59:37.063Z,5.38
2022-08-22T08:02:10.391Z,4.95
2022-08-22T08:04:40.730Z,5.15
2022-08-22T08:07:11.011Z,4.45
2022-08-22T08:09:44.431Z,5.50
2022-08-22T08:12:12.618Z,5.70
2022-08-22T08:14:44.091Z,5.63
2022-08-22T08:17:26.946Z,5.63
2022-08-22T08:19:57.654Z,5.75
2022-08-22T08:22:26.708Z,5.63
2022-08-22T08:25:00.347Z,5.18
2022-08-22T08:27:50.391Z,5.35
2022-08-22T08:30:22.150Z,5.28
2022-08-22T08:32:59.625Z,5.20
2022-08-22T08:36:03.553Z,5.47
2022-08-22T08:38:48.932Z,5.53
2022-08-22T08:41:31.691Z,5.73
2022-08-22T08:44:10.399Z,5.85
2022-08-22T08:47:06.440Z,5.10
2022-08-22T08:49:44.106Z,4.68
2022-08-22T08:52:16.702Z,4.65
2022-08-22T08:54:51.755Z,4.75
2022-08-22T08:57:33.020Z,4.35
2022-08-22T09:00:15.958Z,4.20
2022-08-22T09:03:01.154Z,4.18
2022-08-22T09:06:12.912Z,3.83
2022-08-22T09:09:01.895Z,3.55
2022-08-22T09:11:57.420Z,4.35
2022-08-22T09:14:49.536Z,4.60
2022-08-22T09:17:19.815Z,4.15
2022-08-22T09:20:17.881Z,3.50
2022-08-22T09:23:34.799Z,3.58
2022-08-22T09:26:20.444Z,3.63
2022-08-22T09:29:28.944Z,3.30
2022-08-22T09:32:13.212Z,3.13
2022-08-22T09:34:57.694Z,3.85
2022-08-22T09:40:17.636Z,3.72
2022-08-22T09:43:01.504Z,3.00
2022-08-22T09:45:37.707Z,3.22
2022-08-22T09:48:48.704Z,3.97
2022-08-22T09:51:41.311Z,3.53
2022-08-22T09:54:31.669Z,10.95
2022-08-22T09:57:14.684Z,10.05
2022-08-22T10:00:13.936Z,14.60
2022-08-22T10:03:10.401Z,3.75
2022-08-22T10:05:57.507Z,2.80
2022-08-22T10:08:30.559Z,2.97
2022-08-22T10:11:29.747Z,2.30
2022-08-22T10:14:09.918Z,3.10
2022-08-22T10:16:42.850Z,2.85
2022-08-22T10:19:20.823Z,2.83
2022-08-22T10:22:15.680Z,3.10
2022-08-22T10:24:51.695Z,2.80
2022-08-22T10:27:42.649Z,3.17
2022-08-22T10:30:11.768Z,3.20
2022-08-22T10:32:43.769Z,2.40
2022-08-22T10:35:20.973Z,2.72
2022-08-22T10:37:57.208Z,2.45
2022-08-22T10:40:39.854Z,2.90
2022-08-22T10:43:15.007Z,2.00
2022-08-22T10:45:46.366Z,2.45
2022-08-22T10:48:54.062Z,2.50
2022-08-22T10:51:28.675Z,1.90
2022-08-22T10:54:20.140Z,2.10
2022-08-22T10:57:11.480Z,1.73
2022-08-22T10:59:56.506Z,1.83
2022-08-22T11:02:38.379Z,1.65
2022-08-22T11:08:19.783Z,2.03
2022-08-22T11:10:52.138Z,2.30
2022-08-22T11:13:42.196Z,2.20
2022-08-22T11:16:36.510Z,1.80
2022-08-22T11:19:45.788Z,2.17
2022-08-22T11:22:27.794Z,4.55
2022-08-22T11:25:13.928Z,2.00
2022-08-22T11:27:43.452Z,2.22
2022-08-22T11:30:36.491Z,1.90
2022-08-22T11:33:35.750Z,1.73
2022-08-22T11:36:21.481Z,1.98
2022-08-22T11:39:18.299Z,2.40
2022-08-22T11:41:59.436Z,2.17
2022-08-22T11:44:50.078Z,2.10
2022-08-22T11:47:24.788Z,1.80
2022-08-22T11:49:58.603Z,1.80
2022-08-22T11:52:51.824Z,2.00
2022-08-22T11:56:06.334Z,1.88
2022-08-22T11:58:49.766Z,2.25
2022-08-22T12:01:34.440Z,2.10
2022-08-22T12:04:29.634Z,1.80
2022-08-22T12:07:10.671Z,2.10
2022-08-22T12:10:13.513Z,2.42
2022-08-22T12:12:54.046Z,2.20
2022-08-22T12:15:45.031Z,2.55
2022-08-22T12:19:12.180Z,1.98
2022-08-22T12:22:09.397Z,1.48
2022-08-22T12:25:04.744Z,2.00
2022-08-22T12:27:31.630Z,2.10
2022-08-22T12:30:14.146Z,2.38
2022-08-22T12:33:10.525Z,2.13
2022-08-22T12:35:58.008Z,1.80
2022-08-22T12:38:48.526Z,1.67
2022-08-22T12:41:41.039Z,1.70
2022-08-22T12:44:36.708Z,1.92
2022-08-22T12:47:35.784Z,1.80
2022-08-22T12:50:20.620Z,1.92
2022-08-22T12:53:07.980Z,2.00
2022-08-22T12:55:55.534Z,2.15
2022-08-22T12:58:58.095Z,2.10
2022-08-22T13:01:34.441Z,2.00
2022-08-22T13:04:08.316Z,2.05
2022-08-22T13:06:35.788Z,1.92
2022-08-22T13:09:10.313Z,1.92
2022-08-22T13:11:40.382Z,2.03
2022-08-22T13:14:15.630Z,2.35
2022-08-22T13:16:51.038Z,1.80
2022-08-22T13:19:23.816Z,2.20
2022-08-22T13:22:00.763Z,1.95
2022-08-22T13:24:52.376Z,1.80
2022-08-22T13:27:25.416Z,1.95
2022-08-22T13:30:00.886Z,2.00
2022-08-22T13:32:39.227Z,2.10
2022-08-22T13:35:24.428Z,2.10
2022-08-22T13:37:58.456Z,2.10
2022-08-22T13:43:11.674Z,2.00
2022-08-22T13:45:42.041Z,2.13
2022-08-22T13:48:12.996Z,1.98
2022-08-22T13:51:01.792Z,2.67
2022-08-22T13:53:49.367Z,2.00
2022-08-22T13:56:50.970Z,2.10
2022-08-22T13:59:50.966Z,1.90
2022-08-22T14:02:22.297Z,2.28
2022-08-22T14:04:53.693Z,1.80
2022-08-22T14:08:04.651Z,2.13
2022-08-22T14:10:47.314Z,1.80
2022-08-22T14:13:45.058Z,2.10
2022-08-22T14:16:24.878Z,2.00
2022-08-22T14:19:00.147Z,1.90
2022-08-22T14:21:41.299Z,2.08
2022-08-22T14:24:11.301Z,1.90
2022-08-22T14:26:47.527Z,1.88
2022-08-22T14:29:18.361Z,2.05
2022-08-22T14:32:02.566Z,2.00
2022-08-22T14:34:31.994Z,1.95
2022-08-22T14:37:27.585Z,1.63
2022-08-22T14:40:17.769Z,2.00
2022-08-22T14:42:54.374Z,1.85
2022-08-22T14:45:33.822Z,1.95
2022-08-22T14:48:29.877Z,1.80
2022-08-22T14:51:06.190Z,2.13
2022-08-22T14:53:38.270Z,1.73
2022-08-22T14:56:14.818Z,1.88
2022-08-22T14:58:53.265Z,2.05
2022-08-22T15:03:56.195Z,1.80
2022-08-22T15:06:50.906Z,1.90
2022-08-22T15:09:30.914Z,2.05
2022-08-22T15:11:58.809Z,2.20
2022-08-22T15:14:37.504Z,2.00
2022-08-22T15:17:08.794Z,2.08
2022-08-22T15:19:41.878Z,2.03
2022-08-22T15:22:21.917Z,1.88
2022-08-22T15:25:11.729Z,1.90
2022-08-22T15:27:52.496Z,1.90
2022-08-22T15:30:44.595Z,1.83
2022-08-22T15:33:20.909Z,1.63
2022-08-22T15:35:51.380Z,2.03
2022-08-22T15:38:30.346Z,1.90
2022-08-22T15:41:22.855Z,2.30
2022-08-22T15:44:01.263Z,2.00
2022-08-22T15:46:44.438Z,1.90
2022-08-22T15:49:20.288Z,1.90
2022-08-22T15:51:56.485Z,2.13
2022-08-22T15:54:31.054Z,1.88
2022-08-22T15:57:10.626Z,2.00
2022-08-22T15:59:53.977Z,1.75
2022-08-22T16:02:21.344Z,2.35
2022-08-22T16:05:03.131Z,1.83
2022-08-22T16:07:35.361Z,1.77
2022-08-22T16:10:12.742Z,1.90
2022-08-22T16:13:06.564Z,1.80
2022-08-22T16:15:52.697Z,2.20
2022-08-22T16:18:39.140Z,2.03
2022-08-22T16:21:16.513Z,2.17
2022-08-22T16:23:58.233Z,2.05
2022-08-22T16:26:38.336Z,2.28
2022-08-22T16:29:15.030Z,1.85
2022-08-22T16:31:44.902Z,2.08
2022-08-22T16:34:18.059Z,2.08
2022-08-22T16:36:50.123Z,2.05
2022-08-22T16:39:23.041Z,2.10
2022-08-22T16:42:22.341Z,2.40
2022-08-22T16:44:50.364Z,2.25
2022-08-22T16:47:40.753Z,1.95
2022-08-22T16:50:18.195Z,2.13
2022-08-22T16:53:04.670Z,2.03
2022-08-22T16:55:31.504Z,2.42
2022-08-22T16:58:21.319Z,2.42
2022-08-22T17:01:06.079Z,2.15
2022-08-22T17:03:32.869Z,2.38
2022-08-22T17:06:41.120Z,2.20
2022-08-22T17:09:30.598Z,2.33
2022-08-22T17:12:21.912Z,2.35
2022-08-22T17:15:10.065Z,2.13
2022-08-22T17:18:12.267Z,2.00
2022-08-22T17:20:45.489Z,2.30
2022-08-22T17:23:55.231Z,2.03
2022-08-22T17:26:55.277Z,2.20
2022-08-22T17:29:40.139Z,2.35
2022-08-22T17:32:34.951Z,2.70
2022-08-22T17:35:15.906Z,2.38
2022-08-22T17:38:01.499Z,2.33
2022-08-22T17:44:07.280Z,1.80
2022-08-22T17:46:52.831Z,1.90
2022-08-22T17:49:42.680Z,1.80
2022-08-22T17:52:20.651Z,1.88
2022-08-22T17:54:57.103Z,1.58
2022-08-22T17:57:52.640Z,2.60
2022-08-22T18:00:25.932Z,2.35
2022-08-22T18:03:14.517Z,2.67
2022-08-22T18:05:52.586Z,2.40
2022-08-22T18:11:18.419Z,2.60
2022-08-22T18:13:57.789Z,2.25
2022-08-22T18:16:29.523Z,2.92
2022-08-22T18:19:06.472Z,2.60
2022-08-22T18:21:42.206Z,2.63
2022-08-22T18:24:11.884Z,2.50
2022-08-22T18:26:41.673Z,2.70
2022-08-22T18:29:23.022Z,2.40
2022-08-22T18:32:12.625Z,2.58
2022-08-22T18:34:59.838Z,2.72
2022-08-22T18:37:35.709Z,2.65
2022-08-22T18:40:36.620Z,2.63
2022-08-22T18:43:17.713Z,3.20
2022-08-22T18:45:47.370Z,2.80
2022-08-22T18:48:30.178Z,3.00
2022-08-22T18:51:21.203Z,2.92
2022-08-22T18:53:57.202Z,2.70
2022-08-22T18:56:59.580Z,3.53
2022-08-22T18:59:57.338Z,2.90
2022-08-22T19:02:24.141Z,3.50
2022-08-22T19:04:56.564Z,3.30
2022-08-22T19:07:35.406Z,3.17
2022-08-22T19:10:28.288Z,3.30
2022-08-22T19:13:03.576Z,3.05
2022-08-22T19:18:11.919Z,2.90
2022-08-22T19:20:59.296Z,3.00
2022-08-22T19:23:32.183Z,2.78
2022-08-22T19:26:17.636Z,3.10
2022-08-22T19:28:44.470Z,3.03
2022-08-22T19:31:23.241Z,3.92
2022-08-22T19:34:15.288Z,2.85
2022-08-22T19:36:42.934Z,2.40
2022-08-22T19:39:31.056Z,2.70
2022-08-22T19:41:59.584Z,2.63
2022-08-22T19:44:26.386Z,2.50
2022-08-22T19:47:08.042Z,2.30
2022-08-22T19:49:42.832Z,2.22
2022-08-22T19:52:32.726Z,2.28
2022-08-22T19:55:41.056Z,2.35
2022-08-22T19:58:16.392Z,2.47
2022-08-22T20:00:56.979Z,1.98
2022-08-22T20:03:57.969Z,2.28
2022-08-22T20:06:43.438Z,2.22
2022-08-22T20:09:52.347Z,2.53
2022-08-22T20:12:21.894Z,2.30
2022-08-22T20:14:49.878Z,2.70
2022-08-22T20:17:25.721Z,2.55
2022-08-22T20:22:39.239Z,1.95
2022-08-22T20:25:42.065Z,2.28
2022-08-22T20:28:11.702Z,1.80
2022-08-22T20:30:42.258Z,2.17
2022-08-22T20:33:18.395Z,2.13
2022-08-22T20:35:53.248Z,2.08
2022-08-22T20:38:34.817Z,2.08
2022-08-22T20:41:22.826Z,2.40
2022-08-22T20:44:01.604Z,2.20
2022-08-22T20:46:35.687Z,2.03
2022-08-22T20:49:03.085Z,2.30
2022-08-22T20:51:32.284Z,2.50
2022-08-22T20:54:10.273Z,2.15
2022-08-22T20:56:56.034Z,2.25
2022-08-22T20:59:35.946Z,2.13
2022-08-22T21:02:14.957Z,2.47
2022-08-22T21:04:56.922Z,2.40
2022-08-22T21:07:34.046Z,2.60
2022-08-22T21:10:26.370Z,2.28
2022-08-22T21:13:12.027Z,2.47
2022-08-22T21:15:46.981Z,2.55
2022-08-22T21:18:24.204Z,2.42
2022-08-22T21:20:51.103Z,2.75
2022-08-22T21:23:19.484Z,2.17
2022-08-22T21:25:54.725Z,2.45
2022-08-22T21:28:36.751Z,2.47
2022-08-22T21:31:16.605Z,2.55
2022-08-22T21:33:45.742Z,2.58
2022-08-22T21:36:18.850Z,2.60
2022-08-22T21:39:05.671Z,2.40
2022-08-22T21:41:40.123Z,2.42
2022-08-22T21:44:31.236Z,2.40
2022-08-22T21:47:33.766Z,2.38
2022-08-22T21:50:06.511Z,2.72
2022-08-22T21:52:39.324Z,2.40
2022-08-22T21:55:27.266Z,2.45
2022-08-22T21:58:06.438Z,2.63
2022-08-22T22:00:52.978Z,3.05
2022-08-22T22:03:24.088Z,2.80
2022-08-22T22:05:52.883Z,2.80
2022-08-22T22:08:19.732Z,2.67
2022-08-22T22:10:48.866Z,3.03
2022-08-22T22:13:16.940Z,2.92
2022-08-22T22:15:46.332Z,2.80
2022-08-22T22:18:15.774Z,3.00
2022-08-22T22:20:44.024Z,3.08
2022-08-22T22:23:11.328Z,2.92
2022-08-22T22:25:42.195Z,2.95
2022-08-22T22:28:19.901Z,3.00
2022-08-22T22:30:51.474Z,2.78
2022-08-22T22:33:19.887Z,2.30
2022-08-22T22:35:48.049Z,2.47
2022-08-22T22:38:16.938Z,2.95
2022-08-22T22:40:45.378Z,2.80
2022-08-22T22:43:12.387Z,2.55
2022-08-22T22:45:39.638Z,2.60
2022-08-22T22:48:08.057Z,2.75
2022-08-22T22:50:40.451Z,2.50
2022-08-22T22:53:09.573Z,2.60
2022-08-22T22:55:37.123Z,3.03
2022-08-22T22:58:08.521Z,2.78
2022-08-22T23:00:37.337Z,2.88
2022-08-22T23:03:05.550Z,2.80
2022-08-22T23:05:33.424Z,3.00
2022-08-22T23:08:01.018Z,2.70
2022-08-22T23:10:29.837Z,3.10
2022-08-22T23:12:57.148Z,2.72
2022-08-22T23:15:23.952Z,2.90
2022-08-22T23:17:51.019Z,3.10
2022-08-22T23:20:18.676Z,3.03
2022-08-22T23:22:46.096Z,2.50
2022-08-22T23:25:13.552Z,2.67
2022-08-22T23:27:40.498Z,2.40
2022-08-22T23:30:09.108Z,2.85
2022-08-22T23:32:36.933Z,2.65
2022-08-22T23:35:04.926Z,2.40
2022-08-22T23:37:31.828Z,2.10
2022-08-22T23:39:58.788Z,2.67
2022-08-22T23:42:25.870Z,2.80
2022-08-22T23:44:52.663Z,2.70
2022-08-22T23:47:19.491Z,2.40
2022-08-22T23:49:46.357Z,2.40
2022-08-22T23:52:13.918Z,2.40
2022-08-22T23:54:41.456Z,2.47
2022-08-22T23:57:12.009Z,2.33
2022-08-22T23:59:44.655Z,2.30
